| time (UTC) | temp C | wind direction | speed KPH | gust KPH | rain 1hr cm | rain 24hr cm | rain mn cm | humidity % | barometer mb |
| 20260507100533 | 21 | 45 | 4.8 | 8.0 | 0.00 | 0.00 | 0.00 | 51 | 1004.9 |
| 20260507095540 | 21 | 230 | 3.2 | 9.7 | 0.00 | 0.00 | 0.00 | 50 | 1005.0 |
| 20260507094547 | 21 | 243 | 4.8 | 8.0 | 0.00 | 0.00 | 0.00 | 51 | 1005.0 |
| 20260507093555 | 20 | 217 | 3.2 | 9.7 | 0.00 | 0.00 | 0.00 | 52 | 1005.1 |
| 20260507092603 | 19 | 118 | 3.2 | 8.0 | 0.00 | 0.00 | 0.00 | 52 | 1005.1 |
| 20260507091611 | 19 | 225 | 4.8 | 14.5 | 0.00 | 0.00 | 0.00 | 53 | 1005.3 |
| 20260507090619 | 18 | 256 | 1.6 | 4.8 | 0.00 | 0.00 | 0.00 | 54 | 1005.2 |
| 20260507085521 | 18 | 266 | 3.2 | 6.4 | 0.00 | 0.00 | 0.00 | 55 | 1005.3 |
| 20260507084529 | 18 | 204 | 1.6 | 6.4 | 0.00 | 0.00 | 0.00 | 58 | 1005.5 |
| 20260507083537 | 17 | 281 | 0.0 | 4.8 | 0.00 | 0.00 | 0.00 | 60 | 1005.5 |
| 20260507082545 | 17 | 182 | 3.2 | 6.4 | 0.00 | 0.00 | 0.00 | 60 | 1005.4 |
| 20260507081553 | 17 | 218 | 3.2 | 6.4 | 0.00 | 0.00 | 0.00 | 62 | 1005.3 |
| 20260507080601 | 16 | 202 | 3.2 | 4.8 | 0.00 | 0.00 | 0.00 | 65 | 1005.1 |
| 20260507075609 | 16 | 191 | 1.6 | 4.8 | 0.00 | 0.00 | 0.00 | 68 | 1005.2 |
| 20260507074617 | 16 | 202 | 0.0 | 4.8 | 0.00 | 0.00 | 0.00 | 69 | 1005.3 |
| 20260507073519 | 16 | 266 | 1.6 | 4.8 | 0.00 | 0.00 | 0.00 | 66 | 1005.2 |
| 20260507072527 | 16 | 225 | 1.6 | 4.8 | 0.00 | 0.00 | 0.00 | 66 | 1005.1 |
| 20260507071535 | 15 | 202 | 4.8 | 12.9 | 0.00 | 0.00 | 0.00 | 67 | 1005.0 |
| 20260507070543 | 15 | 207 | 1.6 | 6.4 | 0.00 | 0.00 | 0.00 | 73 | 1004.7 |
| 20260507065551 | 15 | 225 | 0.0 | 1.6 | 0.00 | 0.00 | 0.00 | 73 | 1004.8 |
| 20260507064559 | 15 | 270 | 0.0 | 1.6 | 0.00 | 0.00 | 0.00 | 75 | 1004.7 |
| 20260507063607 | 14 | 211 | 0.0 | 1.6 | 0.00 | 0.00 | 0.00 | 77 | 1004.7 |
| 20260507062615 | 13 | 227 | 1.6 | 4.8 | 0.00 | 0.00 | 0.00 | 79 | 1004.6 |
| 20260507061517 | 13 | 200 | 1.6 | 4.8 | 0.00 | 0.00 | 0.00 | 81 | 1004.7 |
| 20260507060525 | 13 | 0.0 | 0.0 | 0.00 | 0.00 | 0.00 | 81 | 1004.5 | |
| 20260507054541 | 12 | 0.0 | 0.0 | 0.00 | 0.00 | 0.00 | 81 | 1004.5 | |
| 20260507053549 | 12 | 180 | 0.0 | 1.6 | 0.00 | 0.00 | 0.00 | 81 | 1004.4 |
| 20260507052557 | 12 | 0.0 | 1.6 | 0.00 | 0.00 | 0.00 | 80 | 1004.3 | |
| 20260507051604 | 12 | 270 | 0.0 | 0.0 | 0.00 | 0.00 | 0.00 | 80 | 1004.2 |
| 20260507050612 | 12 | 225 | 3.2 | 4.8 | 0.00 | 0.00 | 0.00 | 80 | 1004.0 |
| 20260507045620 | 12 | 239 | 0.0 | 1.6 | 0.00 | 0.00 | 0.00 | 80 | 1004.1 |
| 20260507044522 | 12 | 241 | 1.6 | 3.2 | 0.00 | 0.00 | 0.00 | 80 | 1003.9 |
| 20260507043530 | 12 | 225 | 3.2 | 4.8 | 0.00 | 0.00 | 0.00 | 80 | 1003.8 |
| 20260507042538 | 12 | 245 | 3.2 | 8.0 | 0.00 | 0.00 | 0.00 | 80 | 1003.7 |
| 20260507041546 | 12 | 235 | 3.2 | 6.4 | 0.00 | 0.00 | 0.00 | 83 | 1003.6 |
| 20260507040554 | 12 | 0.0 | 0.0 | 0.00 | 0.00 | 0.00 | 83 | 1003.6 | |
| 20260507035602 | 11 | 199 | 3.2 | 4.8 | 0.00 | 0.00 | 0.00 | 82 | 1003.6 |
| 20260507034610 | 11 | 250 | 1.6 | 3.2 | 0.00 | 0.00 | 0.00 | 82 | 1003.7 |
| 20260507033618 | 11 | 275 | 1.6 | 3.2 | 0.00 | 0.00 | 0.00 | 82 | 1003.7 |
| 20260507032520 | 12 | 270 | 0.0 | 1.6 | 0.00 | 0.00 | 0.00 | 81 | 1003.6 |
| 20260507031528 | 12 | 229 | 1.6 | 3.2 | 0.00 | 0.00 | 0.00 | 79 | 1003.5 |
| 20260507030536 | 12 | 225 | 3.2 | 4.8 | 0.00 | 0.00 | 0.00 | 77 | 1003.5 |
| 20260507025544 | 12 | 212 | 1.6 | 4.8 | 0.00 | 0.00 | 0.00 | 76 | 1003.5 |
| 20260507024552 | 12 | 180 | 0.0 | 1.6 | 0.00 | 0.00 | 0.00 | 75 | 1003.5 |
| 20260507023600 | 12 | 203 | 1.6 | 3.2 | 0.00 | 0.00 | 0.00 | 74 | 1003.6 |
| 20260507022608 | 13 | 180 | 0.0 | 1.6 | 0.00 | 0.00 | 0.00 | 73 | 1003.5 |
| 20260507021616 | 13 | 225 | 0.0 | 1.6 | 0.00 | 0.00 | 0.00 | 72 | 1003.5 |
| 20260507020518 | 14 | 180 | 0.0 | 1.6 | 0.00 | 0.00 | 0.00 | 71 | 1003.5 |
| 20260507015526 | 14 | 0.0 | 0.0 | 0.00 | 0.00 | 0.00 | 70 | 1003.4 | |
| 20260507014534 | 15 | 0.0 | 0.0 | 0.00 | 0.00 | 0.00 | 66 | 1003.4 | |
| 20260507013541 | 15 | 218 | 1.6 | 8.0 | 0.00 | 0.00 | 0.00 | 64 | 1003.2 |
| 20260507012549 | 15 | 176 | 8.0 | 14.5 | 0.00 | 0.00 | 0.00 | 64 | 1003.1 |
| 20260507011558 | 15 | 185 | 8.0 | 11.3 | 0.00 | 0.00 | 0.00 | 64 | 1003.1 |
| 20260507010606 | 16 | 186 | 8.0 | 14.5 | 0.00 | 0.00 | 0.00 | 64 | 1003.1 |
| 20260507005613 | 16 | 180 | 6.4 | 11.3 | 0.00 | 0.00 | 0.00 | 63 | 1003.2 |
| 20260507004516 | 16 | 180 | 8.0 | 12.9 | 0.00 | 0.00 | 0.00 | 63 | 1003.2 |
| 20260507003524 | 16 | 194 | 6.4 | 16.1 | 0.00 | 0.00 | 0.00 | 63 | 1003.2 |
| 20260507002532 | 16 | 180 | 9.7 | 16.1 | 0.00 | 0.00 | 0.00 | 63 | 1003.2 |
| 20260507001540 | 16 | 175 | 8.0 | 14.5 | 0.00 | 0.00 | 0.00 | 63 | 1003.2 |
| 20260507000548 | 15 | 180 | 6.4 | 9.7 | 0.00 | 0.00 | 0.00 | 65 | 1003.4 |
| 20260506235556 | 16 | 180 | 8.0 | 14.5 | 0.00 | 0.00 | 0.00 | 64 | 1003.4 |
| 20260506234603 | 15 | 226 | 6.4 | 9.7 | 0.00 | 0.00 | 0.00 | 66 | 1003.4 |
| 20260506233611 | 15 | 183 | 9.7 | 14.5 | 0.00 | 0.00 | 0.00 | 69 | 1003.5 |
| 20260506232619 | 14 | 270 | 4.8 | 9.7 | 0.00 | 0.00 | 0.00 | 71 | 1003.4 |
| 20260506231521 | 13 | 245 | 1.6 | 4.8 | 0.00 | 0.00 | 0.00 | 73 | 1003.4 |
| 20260506230528 | 13 | 256 | 0.0 | 3.2 | 0.00 | 0.00 | 0.00 | 75 | 1003.4 |
| 20260506225536 | 14 | 247 | 0.0 | 0.0 | 0.00 | 0.00 | 0.00 | 74 | 1003.3 |
| 20260506224544 | 14 | 246 | 1.6 | 4.8 | 0.00 | 0.00 | 0.00 | 74 | 1003.2 |
| 20260506223552 | 15 | 226 | 1.6 | 4.8 | 0.00 | 0.00 | 0.00 | 74 | 1003.1 |
| 20260506222600 | 14 | 190 | 4.8 | 8.0 | 0.00 | 0.00 | 0.00 | 76 | 1003.0 |
| 20260506221608 | 14 | 236 | 1.6 | 4.8 | 0.00 | 0.00 | 0.00 | 75 | 1003.2 |
| 20260506220616 | 15 | 225 | 0.0 | 1.6 | 0.00 | 0.00 | 0.00 | 74 | 1003.1 |
| 20260506215518 | 15 | 220 | 1.6 | 4.8 | 0.00 | 0.00 | 0.00 | 74 | 1003.0 |
| 20260506214526 | 15 | 199 | 1.6 | 4.8 | 0.00 | 0.00 | 0.00 | 74 | 1003.1 |
| 20260506213534 | 15 | 0.0 | 0.0 | 0.00 | 0.00 | 0.00 | 73 | 1003.1 | |
| 20260506212542 | 15 | 214 | 0.0 | 1.6 | 0.00 | 0.00 | 0.00 | 72 | 1003.1 |
| 20260506211550 | 15 | 259 | 0.0 | 3.2 | 0.00 | 0.00 | 0.00 | 72 | 1003.0 |
| 20260506210557 | 15 | 194 | 1.6 | 3.2 | 0.00 | 0.00 | 0.00 | 72 | 1003.0 |
| 20260506205606 | 15 | 206 | 3.2 | 4.8 | 0.00 | 0.00 | 0.00 | 72 | 1002.8 |
| 20260506204613 | 15 | 190 | 3.2 | 8.0 | 0.00 | 0.00 | 0.00 | 72 | 1002.7 |
| 20260506203515 | 16 | 270 | 0.0 | 1.6 | 0.00 | 0.00 | 0.00 | 71 | 1002.8 |
| 20260506202523 | 16 | 270 | 0.0 | 3.2 | 0.00 | 0.00 | 0.00 | 71 | 1002.7 |
| 20260506201531 | 15 | 180 | 3.2 | 4.8 | 0.00 | 0.00 | 0.00 | 72 | 1002.7 |
| 20260506200538 | 15 | 270 | 0.0 | 1.6 | 0.00 | 0.00 | 0.00 | 73 | 1002.8 |
| 20260506195547 | 15 | 180 | 0.0 | 3.2 | 0.00 | 0.00 | 0.00 | 72 | 1002.6 |
| 20260506194554 | 15 | 251 | 0.0 | 3.2 | 0.00 | 0.00 | 0.00 | 72 | 1002.7 |
| 20260506193602 | 15 | 251 | 0.0 | 6.4 | 0.00 | 0.00 | 0.00 | 71 | 1002.6 |
| 20260506192610 | 15 | 324 | 0.0 | 1.6 | 0.00 | 0.00 | 0.00 | 70 | 1002.5 |
| 20260506191618 | 15 | 0.0 | 0.0 | 0.00 | 0.00 | 0.00 | 68 | 1002.3 | |
| 20260506190521 | 16 | 4 | 1.6 | 3.2 | 0.00 | 0.00 | 0.00 | 66 | 1002.0 |
| 20260506185529 | 16 | 0.0 | 0.0 | 0.00 | 0.00 | 0.00 | 63 | 1001.8 | |
| 20260506184537 | 17 | 242 | 0.0 | 1.6 | 0.00 | 0.00 | 0.00 | 61 | 1001.8 |
| 20260506183544 | 17 | 213 | 3.2 | 8.0 | 0.00 | 0.00 | 0.00 | 58 | 1001.8 |
| 20260506182552 | 17 | 198 | 6.4 | 14.5 | 0.00 | 0.00 | 0.00 | 57 | 1001.7 |
| 20260506181600 | 17 | 197 | 4.8 | 9.7 | 0.00 | 0.00 | 0.00 | 57 | 1001.7 |
| 20260506180607 | 17 | 180 | 9.7 | 12.9 | 0.00 | 0.00 | 0.00 | 56 | 1001.6 |
| 20260506175615 | 18 | 187 | 4.8 | 14.5 | 0.00 | 0.00 | 0.00 | 55 | 1001.5 |
| 20260506174517 | 18 | 180 | 11.3 | 19.3 | 0.00 | 0.00 | 0.00 | 55 | 1001.3 |
| 20260506173527 | 18 | 223 | 4.8 | 9.7 | 0.00 | 0.00 | 0.00 | 56 | 1001.3 |
| 20260506172533 | 18 | 193 | 11.3 | 17.7 | 0.00 | 0.00 | 0.00 | 56 | 1001.4 |
| 20260506171542 | 18 | 206 | 3.2 | 9.7 | 0.00 | 0.00 | 0.00 | 59 | 1001.3 |
| 20260506170549 | 18 | 196 | 3.2 | 8.0 | 0.00 | 0.00 | 0.00 | 58 | 1001.2 |
| 20260506165557 | 18 | 180 | 8.0 | 12.9 | 0.00 | 0.00 | 0.00 | 58 | 1001.2 |
| 20260506164605 | 18 | 197 | 6.4 | 11.3 | 0.00 | 0.00 | 0.00 | 58 | 1001.5 |
| 20260506163613 | 18 | 180 | 4.8 | 9.7 | 0.00 | 0.00 | 0.00 | 58 | 1001.5 |
| 20260506162515 | 18 | 192 | 9.7 | 14.5 | 0.00 | 0.00 | 0.00 | 57 | 1001.7 |
| 20260506161523 | 18 | 225 | 8.0 | 17.7 | 0.00 | 0.00 | 0.00 | 58 | 1001.8 |
| 20260506160531 | 18 | 225 | 12.9 | 16.1 | 0.00 | 0.00 | 0.00 | 57 | 1001.9 |
| 20260506155539 | 18 | 233 | 1.6 | 6.4 | 0.00 | 0.00 | 0.00 | 59 | 1001.8 |
| 20260506154547 | 18 | 215 | 4.8 | 11.3 | 0.00 | 0.00 | 0.00 | 59 | 1001.9 |
| 20260506153555 | 18 | 231 | 4.8 | 12.9 | 0.00 | 0.00 | 0.00 | 58 | 1001.9 |
| 20260506152602 | 18 | 211 | 8.0 | 19.3 | 0.00 | 0.00 | 0.00 | 58 | 1001.9 |
| 20260506151610 | 18 | 189 | 12.9 | 19.3 | 0.00 | 0.00 | 0.00 | 57 | 1001.9 |
| 20260506150618 | 18 | 129 | 9.7 | 14.5 | 0.00 | 0.00 | 0.00 | 56 | 1001.9 |
| 20260506145520 | 18 | 169 | 4.8 | 14.5 | 0.00 | 0.00 | 0.00 | 55 | 1002.0 |
| 20260506144529 | 19 | 222 | 9.7 | 14.5 | 0.00 | 0.00 | 0.00 | 54 | 1002.0 |
| 20260506143536 | 20 | 171 | 8.0 | 19.3 | 0.00 | 0.00 | 0.00 | 53 | 1002.0 |
| 20260506142544 | 21 | 206 | 12.9 | 19.3 | 0.00 | 0.00 | 0.00 | 51 | 1002.0 |
| 20260506141552 | 20 | 231 | 9.7 | 17.7 | 0.00 | 0.00 | 0.00 | 53 | 1001.9 |
| 20260506140600 | 20 | 180 | 9.7 | 16.1 | 0.00 | 0.00 | 0.00 | 53 | 1002.0 |
| 20260506135607 | 20 | 203 | 9.7 | 19.3 | 0.00 | 0.00 | 0.00 | 52 | 1002.0 |
| 20260506134615 | 20 | 191 | 9.7 | 19.3 | 0.00 | 0.00 | 0.00 | 52 | 1002.1 |
| 20260506133518 | 20 | 207 | 11.3 | 24.1 | 0.00 | 0.00 | 0.00 | 52 | 1002.0 |
| 20260506132525 | 21 | 187 | 9.7 | 14.5 | 0.00 | 0.00 | 0.00 | 51 | 1001.9 |
| 20260506131534 | 21 | 178 | 11.3 | 19.3 | 0.00 | 0.00 | 0.00 | 50 | 1002.0 |
| 20260506130541 | 21 | 200 | 11.3 | 19.3 | 0.00 | 0.00 | 0.00 | 50 | 1002.0 |
| 20260506125549 | 21 | 203 | 8.0 | 27.4 | 0.00 | 0.00 | 0.00 | 50 | 1002.1 |
| 20260506124557 | 21 | 186 | 9.7 | 19.3 | 0.00 | 0.00 | 0.00 | 48 | 1002.2 |
| 20260506123605 | 21 | 189 | 12.9 | 24.1 | 0.00 | 0.00 | 0.00 | 47 | 1002.1 |
| 20260506122613 | 20 | 204 | 3.2 | 9.7 | 0.00 | 0.00 | 0.00 | 51 | 1002.2 |
| 20260506121620 | 20 | 207 | 11.3 | 22.5 | 0.00 | 0.00 | 0.00 | 51 | 1002.3 |
| 20260506120522 | 20 | 180 | 11.3 | 14.5 | 0.00 | 0.00 | 0.00 | 51 | 1002.3 |
| 20260506115530 | 20 | 185 | 9.7 | 16.1 | 0.00 | 0.00 | 0.00 | 51 | 1002.2 |
| 20260506114538 | 20 | 224 | 8.0 | 12.9 | 0.00 | 0.00 | 0.00 | 51 | 1002.3 |
| 20260506113546 | 20 | 179 | 8.0 | 16.1 | 0.00 | 0.00 | 0.00 | 50 | 1002.5 |
| 20260506112554 | 21 | 203 | 11.3 | 17.7 | 0.00 | 0.00 | 0.00 | 48 | 1002.6 |
| 20260506111602 | 20 | 294 | 3.2 | 8.0 | 0.00 | 0.00 | 0.00 | 51 | 1002.6 |
| 20260506110610 | 20 | 180 | 9.7 | 14.5 | 0.00 | 0.00 | 0.00 | 51 | 1002.8 |
| 20260506105618 | 20 | 180 | 9.7 | 16.1 | 0.00 | 0.00 | 0.00 | 50 | 1002.9 |
| 20260506104520 | 20 | 201 | 4.8 | 9.7 | 0.00 | 0.00 | 0.00 | 51 | 1003.0 |
| 20260506103528 | 20 | 183 | 6.4 | 14.5 | 0.00 | 0.00 | 0.00 | 51 | 1003.2 |
| 20260506102536 | 20 | 193 | 4.8 | 9.7 | 0.00 | 0.00 | 0.00 | 52 | 1003.3 |
| 20260506101543 | 19 | 243 | 3.2 | 14.5 | 0.00 | 0.00 | 0.00 | 52 | 1003.5 |